Terminal Aerodrome Forecast
Issued by NWS

Home | Current Version | Previous Version | Graphics & Text | Print | Product List | Glossary On
Versions: 1 2 3 4 5 6 7 8 9 10 11 12 13 14 15 16 17 18 19 20 21 22
000
FTUS45 KGGW 242300
TAFOLF
TAF
KOLF 242320Z 2500/2524 13009KT P6SM BKN090
     FM250600 VRB03KT P6SM VCSH BKN090
     FM251800 08007KT P6SM VCSH BKN080=

USA.gov is the U.S. government's official web portal to all federal, state and local government web resources and services.